Great Bend, KS (67530)

4:35 AM CST on February 06, 2016 (GMT -0600)
Edgepark Addition | | Change Station
CLOSE
Current Station
Personal Weather Station
Location: Great Bend, KS
Elevation: 1880 ft
Nearby Weather Stations

Elev 1880 ft 38.38 °N, 98.77 °W | Updated 46 seconds ago

Clear
Clear
25.2 °F
Feels Like 21 °F
N
3.6
Wind Variable Wind from WNW
Gusts 4.9 mph

Today
High -- | Low -- °F
--% Chance of Precip.
Yesterday
High -- | Low -- °F
Precip. -- in
Pressure 30.31 in
Visibility 10.0 miles
Clouds Clear
Windchill 21 °F
Dew Point 18 °F
Humidity 74%
Rainfall 0.00 in
Snow Depth Not available.
7:36 AM 6:02 PM
Waning Crescent, 6% visible
METAR KGBD 061015Z AUTO 30006KT 10SM CLR M05/M10 A3031 RMK AO1
Pressure 30.31 in
Visibility 10.0 miles
Clouds Clear
Windchill 21 °F
Dew Point 18 °F
Humidity 74%
Rainfall 0.00 in
Snow Depth Not available.
7:36 AM 6:02 PM
Waning Crescent, 6% visible
METAR KGBD 061015Z AUTO 30006KT 10SM CLR M05/M10 A3031 RMK AO1

10-Day Weather Forecast

Almanac

Astronomy

Feb. 06, 2016 Rise Set
Actual Time
Civil Twilight
Nautical Twilight
Astronomical Twilight
Moon
Length of Visible Light
Length of Day
Tomorrow will be .
, % of the Moon is Illuminated

Today's Extremes

State Highs State Lows

Community

WunderPhotos

Upload Photos

1,890,933 photos uploaded!

WunderBlog® & News

Nearby

Air Quality

  Air Quality AQ Index Pollutant
Not available.

Snow Depth

Station Depth Elevation

Earthquake Activity

City Distance Mag. Time & Date
Minimum magnitude displayed is 2.5.

Coastal Water Temperatures

Place Temperature

Stations

Nearby Weather Stations

Station Location Temp. Windchill Dew Point Humidity Wind Precip. Elev Updated Type
                   

Watches & Warnings

There are currently no watches in effect.